Timeline UpdatesTrip UpdatesNews PostsPvt PostsTravel TipsAdmin PostsConv PostsFollowed PostsChat RequestsBlog PostsPNR Posts

Disclaimer
Search
 
 
Wed Apr 16, 2014 09:52:11 ISTHomeTrainsΣChainsAtlasPNRForumGalleryNewsFAQTripsMembersLoginFeedback
No Recent News for this Train
Other Trains in the News **new
Latest...
.
Sun Feb 23, 2014 (12:51AM)
⇐ Return Journey: Train# 59441

59442/Ahmedabad Mumbai Central Passenger

Feb 23 2014 (12:51AM)
Change Departure Station:
Change Arrival Station:
Post a Train Travel TipPost a Train Travel Tip **new
Post a Comment/Question/Picture/VideoPost a Comment/Question/Picture/Video
Pantry/Catering
✕ NO Pantry Car
✕ NO Catering
RSA - Rake Sharing
59439,59440,59441,59442,59461and 59462 all share rakes.
Rake/Coach Composition
3 Sleeper and unreserved coaches.; Sleeper coach from 59076 Bhusaval Surat passenger is attached to this train at Surat.; 2AC coach attached from Surat.
Loco
WCAM-1
News    PNR    Forum    Time-Table    Availability    Fare Chart    Map    Arr/Dep History    Trips    Gallery    ΣChains    X/O    Timeline    
Travel Time: 2h 21m    4 halts    Distance: 72 km    Avg Speed: 30 km/hr
Type: Passenger
Zone: WR/Western
Departs @ 02:14 (Avg 39m late)
Platform# 2
SMTWTFS
Saphale/SAH 
Arrives @ 04:35 (Avg 17m late)
Platform# 5
SMTWTFS
Mumbai Central/BCT 

4 halts. 25 intermediate Stations between Saphale and Mumbai Central

Show ALL intermediate Stations  Show Old Time-Table

#CodeStation NameX/OArrivesAvgDepartsAvgHaltPFDay#KmSpeedElevZoneAddress
1ADIAhmedabad Junction (12)  -12:40+2811-420.81751mWRAhmedabad, Gujarat
2MANManinagar (2)X  12:51+3412:53+342m21-417.74850mWRAhmadabad, Gujarat
3VTAVatva (4)  12:59+3413:01+342m--1-412.92649mWRDist. Ahmedabad 382445, Gujarat
4GERGeratpur (2)  13:13+4113:14+411m--1-407.64044mWRAhmadabad, Gujarat
5BJDBarejadi (3)X  13:19+4213:21+422m--1-404.24442mWRBareja-Barejadi Rd, Gujarat
6KANJKanij (3)X  13:27+4313:29+452m--1-399.93439mWRBareja-Barejadi Rd, Gujarat
7NEPNenpur (2)  13:34+4513:36+452m--1-397.05035mWRState Highway 3, Gujarat
8MHDMahemdavad Kheda Road (4)X  13:41+4513:43+472m--1-392.86237mWRMahemdavad, Gujarat
9GTEGothaj (2)  13:51+4813:53+512m--1-384.54632mWRState Highway 3, Gujarat
10NDNadiad Junction (4)  14:05+5314:10+515m31-375.34737mWRNadiad, Gujarat
11UTDUtarsanda (4)  14:17+5114:19+512m--1-369.84740mWRUttarsanda, Gujarat
12KBRVKanjari Boriyavi Junction (4)  14:26+5114:28+512m--1-364.34039mWRKanjari, Gujarat
13ANNDAnand Junction (6)X  14:39+5114:44+495m11-356.85244mWRAnand, Gujarat
14VXDVadod (3)  14:52+4914:54+502m--1-350.04144mWRAnand District, Gujarat
15ADDAdas Road (4)  15:00+5115:02+512m--1-345.94642mWRNational Highway 8, Gujarat
16VDAVasad Junction (3)  15:08+5215:10+522m--1-341.35040mWRVasad, Gujarat
17NDRNandesari (2)  15:16+5215:18+522m--1-336.34142mWRNandesari, Gujarat
18RNORanoli (2)  15:24+5215:26+532m--1-332.12139mWRVadodara District, Gujarat
19BJWBajva (3)X  15:37+5315:39+542m--1-328.31938mWRVadodara, Gujarat
20BRCVadodara Junction (7)XO  16:02+5616:22+1:1420m31-321.12636mWRVadodara, Gujarat
21VSVishvamitri (4)X  16:29+1:1616:31+1:162m--1-318.14930mWRVadodara, Gujarat
22MPRMakarpura (4)X  16:38+1:1516:40+1:152m--1-312.45630mWRVadodara, Gujarat
23VRMVarnama (2)O  16:46+1:1816:48+1:192m--1-306.82128mWRVadodara, Gujarat
24ITAItola (4)X  16:59+1:1617:01+1:172m--1-302.83827mWRNational Highway 8, Gujarat
25KSPRKashipura Sarar (2)XO  17:07+1:1817:09+1:182m--1-299.04726mWRGIDC Industrial Area, Gujarat
26MYGMiyagam Karjan (2)X  17:19+1:1917:21+1:182m11-291.26029mWRKarjan, Gujarat
27LKDLakodara (4)XO  17:29+1:1917:31+1:192m--1-283.25426mWRNH 8, Gujarat
28PLJPalej (4)  17:39+1:2017:41+1:192m--1-276.05729mWRPalej, Gujarat
29VREVarediya (4)  17:48+1:2017:50+1:222m--1-269.45821mWRNH 8, Gujarat
30NIUNabipur (3)X  17:57+1:2417:59+1:232m--1-262.66124mWRNabipur, Gujarat
31CVJChavaj (2)X  18:06+1:2418:08+1:232m--1-255.62520mWRBharuch, Gujarat
32BHBharuch Junction (5)X  18:20+1:1918:25+1:205m51-250.66219mWRBharuch, Gujarat
33AKVAnkleshwar Junction (4)XO  18:34+1:2218:36+1:242m21-241.22519mWRAnkleshwar, Gujarat
34PAOPanoli (3)X  19:01+1:1319:03+1:152m--1-230.91529mWRPanoli, Gujarat
35HATHathuran (2)XO  19:18+1:0519:19+1:051m--1-227.15232mWRKosamba, Gujarat
36KSBKosamba Junction (3)XO  19:24+1:0519:26+1:042m--1-222.75830mWRKosamba, Gujarat
37KIMKim (2)O  19:34+1:0519:36+1:072m--1-214.93018mWRNH 8, Gujarat
38SYNSayan (3)O  19:56+1:0119:58+1:012m--1-205.01221mWRSayan Satellite town, Gujarat
39GTXGothangam (2)XO  20:13+5120:14+521m--1-202.01819mWRAmroli Sayan Rd, Gujarat
40KSEKosad (2)X  20:26+4620:28+472m--1-198.3917mWRSurat, Gujarat
41URNUtran (3)X  20:50+3320:52+332m--1-195.22915mWRSurat, Gujarat
42STSurat (4)XO  21:00+3921:30+5030m31-191.33419mWRSurat 395001, Gujarat
43UDNUdhna Junction (3)  21:37+5321:38+541m21-187.33616mWRUdhna 394210, Gujarat
44BHETBhestan (2)X  21:46+5421:47+541m21-182.54913mWRSurat, Gujarat
45SCHSachin (3)XO  21:54+5421:55+551m--1-176.85011mWRKansad Road Sachin, Gujarat
46MRLMaroli (3)X  22:03+5422:04+541m--1-170.17215mWRMaroli, Gujarat
47NVSNavsari (3)X  22:11+5622:13+562m--1-161.74514mWRNavsari, Gujarat
48GNSTGandhi Smriti (2)O  22:17+5622:19+572m--1-158.76516mWRGandhi Smriti Navsari, Gujarat
49VDHVedchha (3)XO  22:24+5622:26+562m--1-153.23413mWRNavsari, Gujarat
50ACLAncheli (2)X  22:32+5522:33+551m--1-149.95720mWRNavsari, Gujarat
51AMLAmalsad (3)  22:37+5522:39+552m--1-146.15612mWRAmalsad, Gujarat
52BIMBilimora Junction (4)O  22:45+5522:47+552m--1-140.55411mWRBilimora, Gujarat
53DGIDungri (3)X  22:57+5322:58+541m--1-131.52420mWRNH 8, Gujarat
54BLValsad (3)X  23:20+4423:30+4310m31-122.66415mWRValsad, Gujarat
55PADPardi (3)X  23:40+4523:42+442m--1-111.96019mWRValsad, Gujarat
56UVDUdvada (3)  23:48+4423:50+452m--1-105.95218mWRUdvada, Gujarat
57VAPIVapi (3)XO  00:01+4300:02+451m--2-96.35527mWRVapi, Gujarat
58KEBKarambeli (2)  00:09+4400:11+442m--2-89.94829mWRNational Highway 8, Gujarat
59BLDBhilad (3)X  00:17+4400:19+432m--2-85.16933mWRBhilad, Gujarat
60SJNSanjan (3)X  00:29+4400:31+452m--2-73.55422mWRSanjan, Gujarat
61UBRUmbargam Road (3)X  00:37+4600:39+462m--2-68.16930mWRUmbergaon, Gujarat
62GVDGholvad (4)XO  00:47+4800:50+473m--2-59.04814mWRGholvad, Maharashtra
63DRDDahanu Road (5)XO  01:04+4401:08+434m--2-47.86212mWRDahanu, Maharashtra
64VGNVangaon (3)XO  01:20+4301:23+433m--2-35.57111mWRThane, Maharashtra
65BORBoisar (3)X  01:31+4401:34+433m32-26.15217mWRBoisar Tel.no-02525-266626, Maharashtra
66PLGPalghar (3)  01:47+4101:50+423m--2-14.84619mWRPalghar, Maharashtra
67KLVKelve Road (3)O  02:01+4002:03+412m--2-6.44810mWRThane, Maharashtra
68SAH»Saphale (2)»O  02:11+4102:14+393m220.0328mWRThane, Maharashtra
69VRVirar (8)  02:45+2902:50+275m--216.3466mWRThane, Maharashtra
70BSRVasai Road (7)  03:01+2603:03+272m5224.7617mWRThane-401202, Maharashtra
71BVIMumbai Borivali (8)  03:20+2803:25+285m5242.13819mWRMumbai - 400092, Maharashtra
72DDRMumbai Dadar Western (6)  04:02+2104:05+263m5265.9126mWRMumbai, Maharashtra
73BCT•Mumbai Central (9)•  04:35+17-5271.8-3mWRMumbai-400 008, Maharashtra
Scroll to Top
Scroll to Bottom